Time;durP1;ratioP1;P1;durP2;ratioP2;P2;SDS_P1;SDS_P2;PMS_P1;PMS_P2;Temp;Humidity;BMP_temperature;BMP_pressure;BME280_temperature;BME280_humidity;BME280_pressure;Samples;Min_cycle;Max_cycle;Signal;HPM_P1;HPM_P2
2023/01/03 00:01:36;;;;;;;11.73;7.72;;;;;;;1.76;90.81;97413.56;5052372;28;20466;-62
2023/01/03 00:04:04;;;;;;;10.60;7.68;;;;;;;1.77;90.79;97414.41;5052116;28;20459;-65
2023/01/03 00:06:33;;;;;;;15.50;7.75;;;;;;;1.85;90.57;97415.38;5052259;28;20098;-62
2023/01/03 00:09:02;;;;;;;10.77;7.70;;;;;;;1.85;90.06;97417.94;5052088;28;20102;-62
2023/01/03 00:14:19;;;;;;;8.38;6.57;;;;;;;1.89;89.81;97421.41;5052107;28;20413;-65
2023/01/03 00:16:47;;;;;;;9.13;6.95;;;;;;;1.83;89.54;97422.22;5051911;28;20082;-65
2023/01/03 00:19:15;;;;;;;12.05;7.35;;;;;;;1.80;89.57;97419.59;5051934;28;20049;-62
2023/01/03 00:21:43;;;;;;;15.55;8.15;;;;;;;1.81;89.92;97423.94;5051962;28;20456;-62
2023/01/03 00:24:11;;;;;;;13.88;7.93;;;;;;;1.80;89.85;97416.19;5051901;28;20045;-63
2023/01/03 00:26:39;;;;;;;10.93;7.18;;;;;;;1.86;89.83;97413.63;5051972;28;20080;-63
2023/01/03 00:29:08;;;;;;;10.13;7.03;;;;;;;1.78;89.62;97413.56;5051797;28;20049;-65
2023/01/03 00:31:38;;;;;;;8.98;6.25;;;;;;;1.73;89.69;97417.81;5051775;28;20072;-62
2023/01/03 00:34:05;;;;;;;10.05;6.68;;;;;;;1.74;89.98;97415.25;5051622;28;20053;-61
2023/01/03 00:36:33;;;;;;;12.73;7.28;;;;;;;1.73;90.67;97416.09;5051611;28;20053;-62
2023/01/03 00:39:00;;;;;;;12.30;6.60;;;;;;;1.72;90.69;97406.59;5051611;28;20578;-63
2023/01/03 00:41:28;;;;;;;10.30;7.15;;;;;;;1.73;90.97;97415.22;5051417;28;20399;-62
2023/01/03 00:43:56;;;;;;;9.07;6.68;;;;;;;1.65;90.95;97409.97;5051612;28;20049;-64
2023/01/03 00:46:23;;;;;;;11.27;6.68;;;;;;;1.65;90.79;97412.56;5051530;27;20045;-64
2023/01/03 00:48:52;;;;;;;10.18;6.70;;;;;;;1.66;91.11;97405.69;5051382;28;20045;-63
2023/01/03 00:51:21;;;;;;;12.77;8.30;;;;;;;1.61;91.49;97401.34;5051359;28;20041;-62
2023/01/03 00:53:50;;;;;;;10.48;7.45;;;;;;;1.60;91.37;97399.59;5051304;28;20056;-62
2023/01/03 00:56:20;;;;;;;13.77;7.07;;;;;;;1.69;91.57;97392.81;5051543;28;20053;-65
2023/01/03 00:58:48;;;;;;;11.27;7.10;;;;;;;1.67;90.85;97390.22;5051363;28;20113;-62
2023/01/03 01:01:16;;;;;;;11.90;6.95;;;;;;;1.73;90.91;97397.16;5051175;28;20055;-64
2023/01/03 01:03:46;;;;;;;9.35;6.68;;;;;;;1.69;91.09;97396.28;5050556;28;20052;-63
2023/01/03 01:06:24;;;;;;;14.20;9.03;;;;;;;1.72;91.71;97390.28;5051227;28;20049;-62
2023/01/03 01:08:53;;;;;;;14.35;7.57;;;;;;;1.74;92.07;97389.44;5051113;28;20643;-62
2023/01/03 01:11:22;;;;;;;12.02;7.38;;;;;;;1.81;91.50;97389.50;5051006;28;20057;-61
2023/01/03 01:13:50;;;;;;;10.63;7.03;;;;;;;1.85;91.09;97384.41;5050856;28;20049;-63
2023/01/03 01:16:19;;;;;;;10.50;6.38;;;;;;;1.81;90.17;97384.34;5051121;28;20056;-64
2023/01/03 01:18:48;;;;;;;11.13;7.90;;;;;;;1.75;90.45;97385.16;5051076;28;20049;-62
2023/01/03 01:21:20;;;;;;;11.02;7.55;;;;;;;1.75;91.00;97380.84;5051095;28;20049;-64
2023/01/03 01:23:48;;;;;;;13.13;8.23;;;;;;;1.74;91.00;97378.25;5050995;28;20080;-64
2023/01/03 01:26:17;;;;;;;15.60;9.45;;;;;;;1.71;90.92;97375.63;5050873;28;20056;-65
2023/01/03 01:28:45;;;;;;;20.15;9.65;;;;;;;1.66;91.42;97377.31;5050969;28;20493;-64
2023/01/03 01:31:15;;;;;;;17.45;8.25;;;;;;;1.67;91.20;97372.16;5050827;28;20072;-65
2023/01/03 01:33:43;;;;;;;12.95;7.15;;;;;;;1.67;91.07;97373.88;5050789;28;20133;-64
2023/01/03 01:36:15;;;;;;;12.10;7.05;;;;;;;1.69;91.11;97370.47;5050772;28;20055;-64
2023/01/03 01:38:44;;;;;;;12.40;7.88;;;;;;;1.68;91.21;97368.72;5050717;28;20045;-62
2023/01/03 01:41:13;;;;;;;13.73;9.02;;;;;;;1.70;92.05;97368.75;5050405;28;20536;-65
2023/01/03 01:46:40;;;;;;;14.38;7.85;;;;;;;1.79;92.12;97366.28;5050625;28;20055;-65
2023/01/03 01:49:16;;;;;;;14.85;8.07;;;;;;;1.80;92.17;97372.31;5050587;28;20444;-64
2023/01/03 01:51:43;;;;;;;15.00;8.88;;;;;;;1.83;92.19;97364.56;5050514;28;20140;-66
2023/01/03 01:54:12;;;;;;;12.98;8.48;;;;;;;1.87;92.36;97364.63;5050370;28;20503;-64
2023/01/03 01:56:43;;;;;;;13.35;8.15;;;;;;;1.87;91.82;97361.19;5050416;28;20136;-64
2023/01/03 01:59:12;;;;;;;10.77;7.88;;;;;;;1.86;91.32;97364.59;5050337;28;20136;-64
2023/01/03 02:01:41;;;;;;;8.68;6.45;;;;;;;1.82;91.05;97355.09;5050346;28;20045;-65
2023/01/03 02:04:14;;;;;;;11.48;7.90;;;;;;;1.85;90.77;97358.59;5050378;28;20049;-66
2023/01/03 02:06:42;;;;;;;13.07;8.00;;;;;;;1.91;90.66;97356.91;5050262;28;20056;-64
2023/01/03 02:09:09;;;;;;;13.27;8.88;;;;;;;1.96;90.38;97348.34;5050268;28;20471;-62
2023/01/03 02:11:47;;;;;;;12.43;8.10;;;;;;;1.98;90.69;97345.78;5050206;28;20482;-65
2023/01/03 02:14:32;;;;;;;11.35;7.50;;;;;;;1.86;90.49;97343.97;5049143;28;20049;-62
2023/01/03 02:17:20;;;;;;;15.52;8.13;;;;;;;1.78;90.52;97343.91;5050155;28;20171;-66
2023/01/03 02:20:09;;;;;;;15.05;8.10;;;;;;;1.77;90.74;97344.75;5050219;28;20472;-66
2023/01/03 02:22:58;;;;;;;14.23;8.63;;;;;;;1.69;91.25;97342.09;5050086;28;20498;-65
2023/01/03 02:26:04;;;;;;;12.43;8.15;;;;;;;1.63;91.81;97352.34;5049966;28;20130;-65
2023/01/03 02:29:12;;;;;;;14.63;8.95;;;;;;;1.64;91.58;97349.78;5050046;28;20080;-64
2023/01/03 02:31:48;;;;;;;11.25;7.82;;;;;;;1.59;91.76;97342.81;5049869;28;20055;-65
2023/01/03 02:34:23;;;;;;;12.10;7.50;;;;;;;1.63;91.79;97345.47;5049791;28;20049;-65
2023/01/03 02:37:05;;;;;;;8.15;6.13;;;;;;;1.66;91.08;97341.19;5050023;28;20410;-66
2023/01/03 02:39:38;;;;;;;11.05;7.90;;;;;;;1.61;91.52;97336.84;5049813;28;20106;-65
2023/01/03 02:45:06;;;;;;;12.23;7.18;;;;;;;1.63;91.54;97342.88;5049895;28;20068;-64
2023/01/03 02:47:41;;;;;;;108.43;86.25;;;;;;;1.69;91.75;97342.09;5049827;28;20067;-64
2023/01/03 02:50:13;;;;;;;22.70;15.48;;;;;;;1.71;91.64;97342.09;5049750;28;20090;-64
2023/01/03 02:52:45;;;;;;;15.57;11.25;;;;;;;1.75;92.12;97347.31;5049646;28;20092;-64
2023/01/03 02:55:17;;;;;;;11.30;7.90;;;;;;;1.76;91.80;97335.28;5049456;28;20048;-66
2023/01/03 02:57:49;;;;;;;17.27;10.15;;;;;;;1.76;92.45;97337.84;5049648;28;20053;-66
2023/01/03 03:00:20;;;;;;;12.48;9.48;;;;;;;1.84;92.42;97332.78;5049641;28;20131;-65
2023/01/03 03:02:54;;;;;;;8.43;6.65;;;;;;;1.86;91.62;97342.25;5049608;28;20102;-66
2023/01/03 03:05:25;;;;;;;14.18;6.68;;;;;;;1.80;91.06;97344.78;5049646;28;20091;-64
2023/01/03 03:07:53;;;;;;;9.32;6.25;;;;;;;1.80;90.05;97336.19;5049488;28;20052;-63
2023/01/03 03:13:16;;;;;;;29.10;8.27;;;;;;;1.73;90.67;97328.38;5049490;28;20513;-65
2023/01/03 03:15:50;;;;;;;18.10;10.48;;;;;;;1.67;91.35;97336.06;5049359;28;20049;-64
2023/01/03 03:18:22;;;;;;;19.55;10.55;;;;;;;1.67;92.09;97333.47;5049402;28;20053;-62
2023/01/03 03:26:28;;;;;;;10.38;7.13;;;;;;;1.61;91.39;97334.28;5050739;28;20056;-64
2023/01/03 03:28:59;;;;;;;11.00;7.28;;;;;;;1.54;91.57;97334.19;5052693;28;20072;-62
2023/01/03 03:31:32;;;;;;;12.10;7.25;;;;;;;1.42;91.45;97327.19;5052750;28;20123;-62
2023/01/03 03:34:06;;;;;;;11.63;7.32;;;;;;;1.47;92.34;97330.66;5052514;28;20109;-61
2023/01/03 03:36:41;;;;;;;12.50;7.43;;;;;;;1.51;91.70;97329.88;5052572;28;20148;-62
2023/01/03 03:47:30;;;;;;;10.68;7.25;;;;;;;1.50;92.44;97331.56;5052474;28;20097;-64
2023/01/03 03:50:03;;;;;;;13.85;7.05;;;;;;;1.58;93.04;97330.78;5052513;28;20105;-62
2023/01/03 03:52:33;;;;;;;10.88;7.93;;;;;;;1.58;93.30;97326.50;5052410;28;20100;-64
2023/01/03 03:55:06;;;;;;;12.68;7.88;;;;;;;1.45;92.92;97324.66;5052268;28;20486;-61
2023/01/03 03:57:38;;;;;;;12.98;8.10;;;;;;;1.47;93.16;97334.13;5052166;28;20122;-63
2023/01/03 04:00:12;;;;;;;12.52;7.40;;;;;;;1.49;93.01;97328.97;5052300;28;20102;-63
2023/01/03 04:02:41;;;;;;;14.70;7.38;;;;;;;1.45;92.77;97328.09;5052269;28;20056;-64
2023/01/03 04:05:12;;;;;;;11.95;7.45;;;;;;;1.36;92.64;97328.84;5052329;28;20049;-65
2023/01/03 04:07:40;;;;;;;10.98;7.68;;;;;;;1.39;93.28;97325.44;5052069;28;20049;-62
2023/01/03 04:10:09;;;;;;;12.00;7.43;;;;;;;1.44;93.18;97322.94;5052047;28;20505;-60
2023/01/03 04:12:36;;;;;;;12.15;8.35;;;;;;;1.41;93.11;97323.72;5052103;28;20484;-64
2023/01/03 04:15:05;;;;;;;11.77;8.50;;;;;;;1.46;92.93;97321.22;5051875;28;20084;-61
2023/01/03 04:17:33;;;;;;;13.48;8.40;;;;;;;1.50;93.62;97321.25;5052010;28;20469;-64
2023/01/03 04:20:00;;;;;;;17.75;9.57;;;;;;;1.58;93.44;97323.06;5052049;28;20085;-61
2023/01/03 04:22:28;;;;;;;14.32;8.07;;;;;;;1.62;92.97;97317.94;5051879;28;20049;-63
2023/01/03 04:24:55;;;;;;;16.38;9.05;;;;;;;1.66;93.45;97318.84;5051885;28;20135;-63
2023/01/03 04:27:22;;;;;;;15.23;8.95;;;;;;;1.73;93.42;97317.19;5051816;28;20106;-62
2023/01/03 04:29:49;;;;;;;12.93;8.30;;;;;;;1.78;92.41;97323.28;5051754;28;20444;-63
2023/01/03 04:32:16;;;;;;;10.60;6.82;;;;;;;1.73;91.17;97322.34;5051778;28;20083;-61
2023/01/03 04:34:43;;;;;;;16.80;8.80;;;;;;;1.63;91.13;97329.13;5051550;28;20106;-64
2023/01/03 04:37:11;;;;;;;15.07;8.00;;;;;;;1.66;91.35;97323.13;5050844;28;20531;-62
2023/01/03 04:39:40;;;;;;;12.20;6.82;;;;;;;1.70;91.15;97327.47;5051366;28;20482;-61
2023/01/03 04:44:00;;;;;;;21.40;9.45;;;;;;;1.73;90.67;97332.66;5051346;28;20052;-62
2023/01/03 04:44:53;;;;;;;9.90;6.85;;;;;;;1.66;90.78;97324.00;5051433;28;20399;-64
2023/01/03 04:47:20;;;;;;;14.05;7.20;;;;;;;1.61;90.36;97323.09;5051478;28;20048;-66
2023/01/03 04:49:48;;;;;;;21.90;10.20;;;;;;;1.64;90.75;97328.28;5051446;28;20486;-67
2023/01/03 04:52:16;;;;;;;18.52;9.60;;;;;;;1.66;91.10;97329.16;5051417;28;20416;-63
2023/01/03 04:54:44;;;;;;;16.75;8.30;;;;;;;1.67;91.16;97330.91;5051266;28;20135;-64
2023/01/03 04:57:11;;;;;;;17.70;9.35;;;;;;;1.70;91.74;97330.94;5051331;28;20067;-61
2023/01/03 04:59:39;;;;;;;27.13;11.38;;;;;;;1.70;91.64;97336.09;5051286;28;20053;-61
2023/01/03 05:02:06;;;;;;;22.55;10.65;;;;;;;1.74;91.84;97342.13;5051397;28;20045;-65
2023/01/03 05:04:33;;;;;;;16.67;8.90;;;;;;;1.75;91.25;97338.72;5051605;27;20133;-61
2023/01/03 05:07:00;;;;;;;22.38;11.00;;;;;;;1.72;90.81;97341.25;5051240;28;20052;-64
2023/01/03 05:09:28;;;;;;;15.77;8.73;;;;;;;1.71;91.41;97342.97;5051165;28;20059;-63
2023/01/03 05:11:57;;;;;;;15.27;8.82;;;;;;;1.77;91.51;97347.31;5051050;28;20076;-63
2023/01/03 05:14:24;;;;;;;15.63;9.38;;;;;;;1.73;91.49;97351.59;5051026;28;20049;-62
2023/01/03 05:16:51;;;;;;;15.63;8.88;;;;;;;1.77;91.47;97340.44;5051044;28;20133;-64
2023/01/03 05:19:19;;;;;;;15.73;8.55;;;;;;;1.82;91.28;97349.94;5050933;28;20090;-61
2023/01/03 05:27:18;;;;;;;27.20;20.58;;;;;;;1.76;90.45;97345.59;5050943;28;20546;-65
2023/01/03 05:29:49;;;;;;;17.17;10.68;;;;;;;1.58;90.28;97347.16;5050765;28;20044;-64
2023/01/03 05:32:17;;;;;;;15.30;10.05;;;;;;;1.49;91.14;97342.75;5050825;28;20041;-64
2023/01/03 05:34:44;;;;;;;19.90;10.25;;;;;;;1.50;91.88;97346.19;5050629;28;20056;-66
2023/01/03 05:37:11;;;;;;;13.93;9.57;;;;;;;1.47;92.28;97344.44;5050609;28;20127;-64
2023/01/03 05:39:38;;;;;;;13.82;9.75;;;;;;;1.43;92.90;97347.84;5050649;28;20498;-67
2023/01/03 05:42:06;;;;;;;20.23;11.55;;;;;;;1.42;93.18;97355.56;5050344;28;20109;-64
2023/01/03 05:44:35;;;;;;;13.95;9.25;;;;;;;1.53;92.90;97347.94;5050562;28;20045;-65
2023/01/03 05:47:04;;;;;;;43.90;19.57;;;;;;;1.53;92.94;97356.53;5050526;28;20131;-64
2023/01/03 05:49:33;;;;;;;41.53;19.48;;;;;;;1.60;93.13;97358.31;5050197;28;20057;-63
2023/01/03 05:52:00;;;;;;;27.55;13.70;;;;;;;1.64;93.07;97364.41;5050410;28;20053;-63
2023/01/03 05:54:27;;;;;;;22.88;11.15;;;;;;;1.64;93.19;97361.81;5050480;28;20056;-65
2023/01/03 05:56:54;;;;;;;21.40;11.05;;;;;;;1.61;93.37;97365.22;5050513;28;20045;-62
2023/01/03 05:59:21;;;;;;;16.38;10.70;;;;;;;1.62;93.90;97359.22;5050477;28;20127;-65
2023/01/03 06:01:50;;;;;;;28.52;16.13;;;;;;;1.71;94.49;97362.72;5050410;28;20045;-63
2023/01/03 06:04:17;;;;;;;22.38;13.23;;;;;;;1.79;94.17;97360.22;5050444;28;20128;-63
2023/01/03 06:06:44;;;;;;;16.77;10.20;;;;;;;1.87;92.95;97364.63;5050282;28;20137;-67
2023/01/03 06:09:12;;;;;;;13.52;8.15;;;;;;;1.88;91.99;97370.66;5050309;28;20440;-63
2023/01/03 06:11:39;;;;;;;15.27;9.75;;;;;;;1.84;92.33;97369.75;5050306;28;20131;-64
2023/01/03 06:14:07;;;;;;;21.63;12.38;;;;;;;1.89;91.85;97372.38;5050054;28;20048;-61
2023/01/03 06:19:20;;;;;;;15.77;9.00;;;;;;;1.77;92.18;97357.63;5050299;28;20133;-61
2023/01/03 06:21:48;;;;;;;13.75;9.07;;;;;;;1.81;92.53;97372.31;5050172;28;20041;-64
2023/01/03 06:24:15;;;;;;;14.40;8.63;;;;;;;1.89;92.31;97378.41;5050067;28;20133;-62
2023/01/03 06:26:43;;;;;;;14.77;11.48;;;;;;;2.19;93.90;97380.41;5050178;28;20049;-63
2023/01/03 06:29:11;;;;;;;19.33;13.25;;;;;;;3.33;99.64;97373.38;5050073;28;20101;-62
2023/01/03 06:31:39;;;;;;;13.18;8.02;;;;;;;4.80;91.95;97374.44;5049924;28;20128;-62
2023/01/03 06:34:06;;;;;;;9.88;6.03;;;;;;;6.72;82.71;97370.00;5049894;28;20045;-60
2023/01/03 06:36:36;;;;;;;6.47;4.78;;;;;;;8.51;70.96;97375.56;5049878;28;20057;-63
2023/01/03 06:39:03;;;;;;;4.43;2.70;;;;;;;10.09;62.97;97376.03;5049856;28;20123;-63
2023/01/03 06:41:31;;;;;;;8.50;3.20;;;;;;;11.36;56.20;97376.41;5049646;28;20342;-63
2023/01/03 06:43:58;;;;;;;5.63;3.38;;;;;;;12.70;52.20;97384.66;5049895;28;20072;-63
2023/01/03 06:54:47;;;;;;;3.90;3.22;;;;;;;16.71;41.63;97379.91;5049751;28;20060;-62
2023/01/03 06:57:14;;;;;;;3.15;2.75;;;;;;;17.49;39.84;97376.00;5049739;28;20049;-64
2023/01/03 06:59:42;;;;;;;4.18;3.28;;;;;;;18.29;37.61;97368.16;5049531;28;20414;-62
2023/01/03 07:02:10;;;;;;;3.53;3.22;;;;;;;19.02;36.66;97371.06;5052219;28;20128;-65
2023/01/03 07:04:37;;;;;;;5.75;3.42;;;;;;;19.46;35.60;97360.56;5053025;28;20093;-64
2023/01/03 07:07:06;;;;;;;5.78;3.60;;;;;;;20.05;34.94;97364.06;5053027;28;20049;-62
2023/01/03 07:09:34;;;;;;;4.38;3.10;;;;;;;20.73;34.26;97366.78;5053050;28;20053;-62
2023/01/03 07:13:57;;;;;;;3.10;2.80;;;;;;;21.24;33.14;97370.50;5052990;28;20100;-64
2023/01/03 07:14:47;;;;;;;5.18;3.10;;;;;;;21.84;32.40;97369.97;5052890;28;20049;-62
2023/01/03 07:17:15;;;;;;;4.13;3.20;;;;;;;22.19;31.35;97373.75;5052815;28;20044;-65
2023/01/03 07:19:42;;;;;;;4.22;3.22;;;;;;;22.58;30.79;97369.13;5052903;28;20049;-63
2023/01/03 07:22:10;;;;;;;3.40;3.10;;;;;;;22.99;30.38;97375.97;5052801;28;20041;-64
2023/01/03 07:24:37;;;;;;;3.05;2.75;;;;;;;23.34;30.33;97372.41;5052837;28;20053;-62
2023/01/03 07:27:05;;;;;;;3.10;2.78;;;;;;;23.95;28.98;97379.25;5052780;28;20486;-62
2023/01/03 07:29:35;;;;;;;3.33;2.97;;;;;;;24.19;28.44;97391.66;5052699;28;20041;-64
2023/01/03 07:32:03;;;;;;;4.15;3.03;;;;;;;24.43;28.47;97387.09;5052671;28;20090;-63
2023/01/03 07:34:31;;;;;;;2.95;2.70;;;;;;;24.71;28.72;97383.00;5052768;28;20482;-66
2023/01/03 07:36:58;;;;;;;4.43;3.53;;;;;;;25.15;28.08;97378.56;5052564;28;20056;-63
2023/01/03 07:39:27;;;;;;;4.00;3.30;;;;;;;25.43;27.74;97374.38;5052605;28;20494;-66
2023/01/03 07:44:39;;;;;;;3.22;2.83;;;;;;;26.39;27.21;97383.13;5052585;28;20060;-65
2023/01/03 07:47:06;;;;;;;3.72;3.03;;;;;;;26.82;26.77;97377.53;5052329;28;20132;-62
2023/01/03 07:49:34;;;;;;;4.65;3.33;;;;;;;27.25;26.30;97373.56;5052543;28;20060;-64
2023/01/03 07:52:01;;;;;;;4.95;3.10;;;;;;;27.35;26.16;97376.22;5052493;28;20602;-64
2023/01/03 07:54:29;;;;;;;6.82;3.15;;;;;;;27.43;26.28;97374.66;5052315;28;20049;-63
2023/01/03 07:56:57;;;;;;;4.20;3.08;;;;;;;27.46;26.34;97375.22;5052348;28;20555;-64
2023/01/03 07:59:24;;;;;;;6.40;3.47;;;;;;;27.55;26.26;97375.31;5052269;28;20133;-65
2023/01/03 08:01:52;;;;;;;7.22;3.20;;;;;;;27.66;26.14;97371.66;5052264;28;20133;-66
2023/01/03 08:04:19;;;;;;;4.00;3.50;;;;;;;27.52;26.32;97373.78;5052314;28;20076;-63
2023/01/03 08:06:47;;;;;;;5.70;3.08;;;;;;;27.55;26.13;97373.50;5052124;28;20053;-67
2023/01/03 08:14:49;;;;;;;4.43;3.42;;;;;;;27.86;25.70;97373.28;5051948;28;20517;-65
2023/01/03 08:17:16;;;;;;;5.28;3.92;;;;;;;27.93;25.86;97372.69;5052008;28;20053;-64
2023/01/03 08:19:43;;;;;;;7.45;4.07;;;;;;;27.62;26.60;97368.38;5051937;28;20045;-63
2023/01/03 08:22:12;;;;;;;5.15;4.25;;;;;;;27.47;27.21;97368.84;5051915;28;20509;-64
2023/01/03 08:24:39;;;;;;;4.30;3.90;;;;;;;27.42;26.43;97367.59;5051804;28;20490;-64
2023/01/03 08:27:08;;;;;;;22.73;13.32;;;;;;;27.17;26.79;97362.69;5051782;28;20045;-66
2023/01/03 08:29:36;;;;;;;10.27;6.00;;;;;;;26.79;26.87;97359.03;5051783;28;20105;-62
2023/01/03 08:32:03;;;;;;;4.78;4.00;;;;;;;26.62;26.84;97364.97;5051776;28;20041;-63
2023/01/03 08:34:35;;;;;;;4.68;4.07;;;;;;;26.68;27.09;97357.31;5051824;28;20049;-65
2023/01/03 08:37:09;;;;;;;4.78;4.07;;;;;;;26.31;27.81;97359.69;5051634;28;20049;-66
2023/01/03 08:39:43;;;;;;;5.65;3.95;;;;;;;25.51;28.15;97359.47;5051727;28;20064;-66
2023/01/03 08:42:15;;;;;;;5.18;4.40;;;;;;;24.59;29.13;97346.59;5051346;28;20049;-64
2023/01/03 08:44:43;;;;;;;5.90;4.82;;;;;;;23.53;30.98;97350.50;5051390;28;20049;-66
2023/01/03 08:47:13;;;;;;;5.18;4.68;;;;;;;22.70;31.59;97351.38;5051607;28;20053;-63
2023/01/03 08:49:41;;;;;;;5.13;4.32;;;;;;;21.94;32.53;97352.38;5051498;28;20073;-65
2023/01/03 08:52:08;;;;;;;6.40;4.47;;;;;;;21.28;34.08;97349.88;5051426;28;20045;-63
2023/01/03 08:54:35;;;;;;;5.10;4.43;;;;;;;20.53;35.37;97347.69;5051495;28;20124;-64
2023/01/03 08:57:02;;;;;;;7.88;4.90;;;;;;;19.95;37.04;97348.69;5051242;28;20045;-66
2023/01/03 08:59:31;;;;;;;7.38;5.30;;;;;;;19.37;37.82;97345.22;5051386;28;20045;-63
2023/01/03 09:01:58;;;;;;;7.28;5.20;;;;;;;19.23;39.02;97346.06;5051342;28;20052;-62
2023/01/03 09:04:25;;;;;;;6.65;5.03;;;;;;;19.24;39.62;97335.38;5051286;28;20056;-62
2023/01/03 09:06:53;;;;;;;6.00;4.95;;;;;;;18.98;40.04;97342.19;5051153;28;20049;-63
2023/01/03 09:09:23;;;;;;;6.85;5.15;;;;;;;18.48;40.51;97340.63;5051121;28;20041;-60
2023/01/03 09:11:50;;;;;;;9.18;5.97;;;;;;;18.08;41.47;97326.97;5051153;28;20555;-65
2023/01/03 09:14:17;;;;;;;7.85;5.22;;;;;;;17.57;43.51;97328.81;5051083;28;20083;-63
2023/01/03 09:16:46;;;;;;;7.00;5.53;;;;;;;17.36;44.22;97325.53;5050883;28;20113;-64
2023/01/03 09:19:13;;;;;;;6.13;5.32;;;;;;;16.99;45.11;97321.22;5051081;28;20045;-63
2023/01/03 09:21:40;;;;;;;5.80;5.20;;;;;;;16.63;46.25;97312.47;5051056;28;20049;-64
2023/01/03 09:24:09;;;;;;;10.25;5.55;;;;;;;16.32;46.18;97315.78;5050377;28;20053;-63
2023/01/03 09:26:36;;;;;;;7.97;5.05;;;;;;;16.18;46.81;97312.03;5050894;28;20409;-63
2023/01/03 09:29:04;;;;;;;7.15;5.30;;;;;;;15.97;46.14;97308.63;5050854;28;20105;-62
2023/01/03 09:31:33;;;;;;;7.55;5.22;;;;;;;16.04;46.41;97304.75;5050943;28;20056;-62
2023/01/03 09:34:04;;;;;;;5.90;4.93;;;;;;;16.07;47.07;97303.78;5050883;28;20045;-65
2023/01/03 09:36:31;;;;;;;6.35;4.93;;;;;;;16.00;47.22;97296.16;5050769;28;20045;-64
2023/01/03 09:38:59;;;;;;;8.38;5.70;;;;;;;15.87;48.03;97295.84;5050812;28;20056;-62
2023/01/03 09:41:28;;;;;;;7.43;5.20;;;;;;;15.78;48.24;97294.47;5050410;28;20051;-65
2023/01/03 09:43:59;;;;;;;9.45;5.18;;;;;;;15.77;48.60;97297.19;5050727;27;20461;-65
2023/01/03 09:46:29;;;;;;;9.13;4.93;;;;;;;15.81;48.66;97288.22;5050679;28;20067;-64
2023/01/03 09:48:57;;;;;;;7.53;5.43;;;;;;;15.78;48.28;97277.81;5050612;28;20132;-64
2023/01/03 10:06:01;;;;;;;7.47;4.60;;;;;;;15.82;47.69;97249.50;5051574;28;20097;-62
2023/01/03 10:08:42;;;;;;;6.32;4.88;;;;;;;15.94;46.37;97248.06;5050364;28;20049;-65
2023/01/03 10:11:16;;;;;;;6.45;4.70;;;;;;;16.04;46.81;97247.56;5050223;28;20049;-63
2023/01/03 10:13:58;;;;;;;5.75;4.28;;;;;;;16.18;46.39;97235.47;5050246;28;20052;-65
2023/01/03 10:16:40;;;;;;;7.50;4.90;;;;;;;16.22;46.18;97229.09;5050109;28;20049;-65
2023/01/03 10:19:25;;;;;;;5.40;4.63;;;;;;;16.37;46.41;97226.63;5050102;28;20463;-63
2023/01/03 10:22:00;;;;;;;4.75;3.90;;;;;;;16.53;45.98;97219.63;5050097;28;20080;-64
2023/01/03 10:24:33;;;;;;;6.00;4.38;;;;;;;16.58;46.36;97224.69;5050015;28;20046;-66
2023/01/03 10:27:07;;;;;;;7.00;4.05;;;;;;;16.63;45.24;97222.66;5050092;28;20063;-63
2023/01/03 10:29:35;;;;;;;6.97;4.22;;;;;;;16.70;45.94;97217.91;5049940;28;20049;-65
2023/01/03 10:32:30;;;;;;;9.68;4.88;;;;;;;16.76;44.96;97216.72;5049897;28;20049;-63
2023/01/03 10:35:14;;;;;;;5.47;3.95;;;;;;;16.88;45.15;97213.44;5049903;28;20510;-64
2023/01/03 10:37:41;;;;;;;6.38;4.57;;;;;;;16.92;44.59;97206.22;5053262;28;20486;-64
2023/01/03 10:40:11;;;;;;;4.95;4.38;;;;;;;16.97;44.29;97204.16;5053507;28;20045;-65
2023/01/03 10:42:41;;;;;;;6.50;5.03;;;;;;;16.93;44.25;97194.72;5053408;28;20110;-66
2023/01/03 10:45:14;;;;;;;4.93;4.43;;;;;;;16.99;44.81;97202.31;5053448;28;20056;-66
2023/01/03 10:47:42;;;;;;;5.35;4.20;;;;;;;17.01;44.02;97199.59;5053344;28;20124;-64
2023/01/03 10:50:21;;;;;;;6.22;4.43;;;;;;;17.04;44.01;97196.78;5053327;28;20045;-65
2023/01/03 10:52:53;;;;;;;5.43;4.10;;;;;;;16.98;43.97;97195.28;5053317;28;20049;-66
2023/01/03 10:55:25;;;;;;;7.10;4.03;;;;;;;16.93;44.00;97192.94;5053208;28;20394;-66
2023/01/03 10:58:01;;;;;;;9.60;4.40;;;;;;;16.96;44.27;97191.03;5053387;28;20049;-65
2023/01/03 11:00:32;;;;;;;13.07;4.38;;;;;;;16.93;43.82;97184.13;5053364;28;20053;-65
2023/01/03 11:03:11;;;;;;;6.32;4.10;;;;;;;17.00;44.02;97187.28;5053144;28;20479;-65
2023/01/03 11:05:40;;;;;;;5.93;5.05;;;;;;;16.94;44.16;97183.19;5053225;28;20045;-63
2023/01/03 11:08:15;;;;;;;8.75;5.43;;;;;;;16.98;43.81;97186.53;5053065;28;20060;-65
2023/01/03 11:10:53;;;;;;;10.00;5.50;;;;;;;16.91;43.48;97178.94;5053069;28;20066;-66
2023/01/03 11:13:27;;;;;;;9.55;5.93;;;;;;;16.87;44.15;97177.41;5053142;28;20091;-67
2023/01/03 11:15:56;;;;;;;8.32;5.68;;;;;;;16.82;44.34;97168.84;5052826;28;20053;-63
2023/01/03 11:18:26;;;;;;;7.45;5.45;;;;;;;16.82;44.08;97168.03;5053116;28;20129;-64
2023/01/03 11:21:01;;;;;;;8.02;5.60;;;;;;;16.86;44.16;97162.47;5052864;28;20053;-65
2023/01/03 11:23:49;;;;;;;9.70;5.43;;;;;;;17.03;43.97;97158.06;5052873;28;20041;-66
2023/01/03 11:26:28;;;;;;;8.70;6.25;;;;;;;17.06;44.38;97163.19;5052719;28;20128;-67
2023/01/03 11:29:14;;;;;;;8.32;5.78;;;;;;;17.06;43.54;97160.53;5052781;28;20049;-65
2023/01/03 11:31:50;;;;;;;9.15;5.80;;;;;;;17.04;43.67;97155.34;5052759;28;20056;-65
2023/01/03 11:34:37;;;;;;;10.30;6.65;;;;;;;17.11;43.83;97157.69;5052629;28;20132;-64
2023/01/03 11:37:14;;;;;;;7.68;5.53;;;;;;;17.11;43.33;97155.91;5052475;28;20082;-65
2023/01/03 11:39:59;;;;;;;8.90;6.15;;;;;;;17.12;43.56;97152.31;5052644;28;20041;-64
2023/01/03 11:42:50;;;;;;;8.10;5.43;;;;;;;17.10;43.05;97148.06;5052280;28;20060;-66
2023/01/03 11:45:47;;;;;;;8.50;6.50;;;;;;;17.09;43.58;97149.81;5052698;28;20411;-64
2023/01/03 11:48:30;;;;;;;10.70;6.63;;;;;;;17.07;43.79;97148.22;5052324;27;20134;-62
2023/01/03 11:51:08;;;;;;;7.53;5.97;;;;;;;17.01;43.69;97141.44;5052357;28;20406;-64
2023/01/03 11:53:37;;;;;;;7.90;5.70;;;;;;;16.94;43.45;97140.91;5052365;28;20630;-63
2023/01/03 11:56:16;;;;;;;9.32;6.45;;;;;;;16.97;43.83;97134.59;5052256;28;20049;-64
2023/01/03 11:59:24;;;;;;;9.32;6.68;;;;;;;16.99;44.05;97132.75;5052477;28;20072;-66
2023/01/03 12:02:18;;;;;;;10.32;6.88;;;;;;;16.96;43.58;97132.91;5052280;28;20056;-64
2023/01/03 12:05:00;;;;;;;8.65;6.57;;;;;;;16.96;43.55;97132.91;5052112;28;20048;-64
2023/01/03 12:07:43;;;;;;;9.80;7.25;;;;;;;16.88;43.99;97131.53;5052065;28;20045;-64
2023/01/03 12:10:16;;;;;;;9.15;7.53;;;;;;;16.86;44.59;97127.28;5052088;28;20132;-64
2023/01/03 12:13:08;;;;;;;9.18;7.15;;;;;;;16.77;44.40;97132.09;5052115;28;20483;-63
2023/01/03 12:15:45;;;;;;;10.15;7.55;;;;;;;16.78;44.29;97125.91;5052071;28;20053;-66
2023/01/03 12:18:22;;;;;;;10.00;7.30;;;;;;;16.76;44.29;97129.56;5051948;28;20415;-66
2023/01/03 12:20:59;;;;;;;10.25;7.88;;;;;;;16.78;44.37;97125.91;5052017;28;20049;-65
2023/01/03 12:23:39;;;;;;;10.48;7.30;;;;;;;16.77;44.62;97116.25;5051963;28;20048;-64
2023/01/03 12:26:09;;;;;;;12.23;7.88;;;;;;;16.75;44.33;97119.94;5051894;28;20113;-65
2023/01/03 12:28:39;;;;;;;;;;;;;;;16.73;45.07;97116.50;5052224;28;20045;-63
2023/01/03 12:31:19;;;;;;;10.98;7.95;;;;;;;16.63;45.40;97122.31;5051720;28;19931;-66
2023/01/03 12:33:57;;;;;;;11.80;8.30;;;;;;;16.64;45.20;97117.84;5051706;28;20049;-64
2023/01/03 12:36:35;;;;;;;10.07;7.38;;;;;;;16.57;44.90;97122.63;5051620;28;20527;-61
2023/01/03 12:39:12;;;;;;;11.15;7.90;;;;;;;16.49;45.40;97123.03;5051705;28;20041;-65
2023/01/03 12:41:45;;;;;;;10.10;7.25;;;;;;;16.52;45.29;97117.59;5051346;28;20495;-63
2023/01/03 12:44:17;;;;;;;11.80;7.05;;;;;;;16.57;45.16;97121.75;5051497;28;20416;-65
2023/01/03 12:46:50;;;;;;;11.43;8.02;;;;;;;16.52;45.48;97120.22;5051665;28;20570;-65
2023/01/03 12:49:24;;;;;;;20.73;11.77;;;;;;;16.53;45.46;97126.38;5051733;28;20072;-63
2023/01/03 12:51:52;;;;;;;72.13;24.30;;;;;;;16.45;45.58;97120.63;5051485;28;20108;-66
2023/01/03 12:54:29;;;;;;;16.73;9.40;;;;;;;16.43;45.63;97128.63;5051513;28;20106;-64
2023/01/03 12:57:29;;;;;;;12.13;8.52;;;;;;;16.40;45.90;97127.00;5051495;28;20422;-66